Time;durP1;ratioP1;P1;durP2;ratioP2;P2;SDS_P1;SDS_P2;PMS_P1;PMS_P2;Temp;Humidity;BMP_temperature;BMP_pressure;BME280_temperature;BME280_humidity;BME280_pressure;Samples;Min_cycle;Max_cycle;Signal;HPM_P1;HPM_P2
2022/11/23 00:01:36;;;;;;;73.70;42.78;;;;;;;7.92;63.69;99568.81;4961419;28;119254;-78
2022/11/23 00:04:07;;;;;;;76.05;43.00;;;;;;;7.93;63.34;99564.09;4986449;28;119718;-78
2022/11/23 00:06:33;;;;;;;75.10;42.70;;;;;;;7.89;63.35;99572.47;4968957;28;119989;-78
2022/11/23 00:08:59;;;;;;;78.97;43.57;;;;;;;7.92;63.61;99574.25;4987857;28;119366;-78
2022/11/23 00:11:26;;;;;;;83.05;44.38;;;;;;;7.92;63.52;99574.25;4991374;28;119350;-77
2022/11/23 00:13:52;;;;;;;78.70;43.20;;;;;;;7.86;63.25;99567.16;4987264;28;119322;-78
2022/11/23 00:16:21;;;;;;;77.45;43.53;;;;;;;7.88;63.34;99570.19;4986645;28;119643;-78
2022/11/23 00:18:51;;;;;;;76.57;42.70;;;;;;;7.90;63.44;99568.50;4986851;28;119333;-78
2022/11/23 00:21:17;;;;;;;76.65;43.25;;;;;;;7.90;63.34;99568.50;4986646;28;119765;-78
2022/11/23 00:23:44;;;;;;;77.30;42.92;;;;;;;7.91;63.65;99574.72;4987242;28;120055;-78
2022/11/23 00:26:30;;;;;;;75.57;43.10;;;;;;;7.93;63.04;99578.50;4985415;28;119658;-78
2022/11/23 00:28:55;;;;;;;74.17;43.23;;;;;;;7.92;63.66;99555.16;4986514;28;119396;-78
2022/11/23 00:31:26;;;;;;;77.72;43.50;;;;;;;7.96;63.56;99577.59;4967363;28;119833;-78
2022/11/23 00:33:54;;;;;;;76.00;42.97;;;;;;;7.97;63.73;99576.38;4954135;28;119322;-77
2022/11/23 00:36:21;;;;;;;77.47;43.30;;;;;;;7.99;63.76;99570.44;4967037;28;119374;-76
2022/11/23 00:38:48;;;;;;;73.93;42.20;;;;;;;8.04;63.51;99571.81;4966224;28;120101;-76
2022/11/23 00:41:20;;;;;;;73.95;42.60;;;;;;;8.04;63.62;99567.09;4967728;28;119344;-76
2022/11/23 00:43:46;;;;;;;77.50;43.17;;;;;;;8.05;63.15;99559.69;4970303;28;119818;-75
2022/11/23 00:46:16;;;;;;;74.40;42.47;;;;;;;8.07;63.06;99566.19;4969126;28;119781;-76
2022/11/23 00:48:47;;;;;;;77.38;43.40;;;;;;;7.99;63.05;99557.56;4976038;28;119576;-76
2022/11/23 00:51:19;;;;;;;72.88;42.10;;;;;;;8.06;63.26;99558.47;4970382;28;119653;-76
2022/11/23 00:53:45;;;;;;;78.03;43.20;;;;;;;8.04;63.32;99555.41;4985975;28;119820;-76
2022/11/23 00:56:12;;;;;;;75.70;42.80;;;;;;;8.07;62.83;99560.75;4954798;28;119568;-76
2022/11/23 00:58:38;;;;;;;73.95;41.55;;;;;;;8.06;63.40;99553.75;4987095;28;119352;-76
2022/11/23 01:01:08;;;;;;;77.50;43.15;;;;;;;8.09;63.48;99550.09;4970140;28;119859;-76
2022/11/23 01:03:36;;;;;;;74.15;42.03;;;;;;;8.02;63.84;99545.72;4968955;28;119948;-76
2022/11/23 01:06:10;;;;;;;75.10;42.50;;;;;;;8.04;63.36;99541.75;4986344;28;119911;-76
2022/11/23 01:08:53;;;;;;;74.30;42.90;;;;;;;8.10;63.15;99548.91;4967372;28;120422;-76
2022/11/23 01:11:22;;;;;;;73.00;42.10;;;;;;;8.13;63.49;99547.97;4952791;28;119792;-77
2022/11/23 01:13:48;;;;;;;73.47;41.70;;;;;;;8.10;63.10;99531.75;4952217;28;120087;-76
2022/11/23 01:16:19;;;;;;;76.03;42.88;;;;;;;8.11;62.87;99533.25;4987371;28;119913;-76
2022/11/23 01:18:59;;;;;;;74.38;42.95;;;;;;;8.09;63.58;99536.47;4938023;28;119931;-77
2022/11/23 01:21:27;;;;;;;73.93;42.40;;;;;;;8.12;62.90;99540.25;4933145;28;119826;-76
2022/11/23 01:23:53;;;;;;;77.22;43.33;;;;;;;8.15;62.96;99540.06;4934109;28;119311;-76
2022/11/23 01:26:19;;;;;;;74.25;42.90;;;;;;;8.10;62.98;99537.22;4915082;28;119467;-76
2022/11/23 01:28:45;;;;;;;77.23;41.93;;;;;;;8.15;63.15;99544.78;4931534;28;119511;-75
2022/11/23 01:31:17;;;;;;;75.13;43.00;;;;;;;8.12;62.77;99540.25;4900757;28;120055;-76
2022/11/23 01:34:13;;;;;;;75.68;42.60;;;;;;;8.07;62.81;99551.78;4861828;28;120808;-76
2022/11/23 01:36:39;;;;;;;80.80;43.25;;;;;;;8.04;62.99;99541.75;4878442;28;119925;-77
2022/11/23 01:39:05;;;;;;;74.20;42.97;;;;;;;8.03;63.72;99546.47;4930294;28;120031;-76
2022/11/23 01:41:38;;;;;;;79.40;43.50;;;;;;;8.02;63.18;99537.50;4916480;28;120610;-77
2022/11/23 01:44:40;;;;;;;77.10;43.70;;;;;;;7.96;63.41;99533.91;4916103;28;119941;-76
2022/11/23 01:47:07;;;;;;;80.82;45.55;;;;;;;7.96;63.08;99544.81;4850510;28;119558;-76
2022/11/23 01:49:39;;;;;;;80.07;44.63;;;;;;;7.91;63.50;99536.50;4936457;28;119553;-76
2022/11/23 01:52:13;;;;;;;78.63;44.70;;;;;;;7.89;63.87;99538.94;4953409;28;120171;-76
2022/11/23 01:54:52;;;;;;;78.05;43.55;;;;;;;7.90;63.44;99546.66;4984764;28;120475;-75
2022/11/23 01:57:25;;;;;;;80.30;43.53;;;;;;;7.89;63.90;99547.88;4969010;28;119687;-76
2022/11/23 01:59:52;;;;;;;80.85;43.90;;;;;;;7.88;63.96;99542.88;4968531;28;119491;-76
2022/11/23 02:02:18;;;;;;;76.80;42.75;;;;;;;7.87;64.17;99542.13;4986861;28;119823;-76
2022/11/23 02:04:47;;;;;;;75.68;43.40;;;;;;;7.91;64.39;99547.44;4956860;28;119684;-76
2022/11/23 02:07:15;;;;;;;75.93;42.92;;;;;;;7.91;64.29;99542.72;4968123;28;120107;-76
2022/11/23 02:09:44;;;;;;;74.53;42.28;;;;;;;7.94;64.67;99541.03;4984903;28;119610;-77
2022/11/23 02:12:12;;;;;;;72.35;42.75;;;;;;;7.97;64.31;99546.34;4968699;28;119466;-76
2022/11/23 02:14:38;;;;;;;69.90;42.15;;;;;;;7.99;63.80;99538.44;4986910;28;119757;-76
2022/11/23 02:17:04;;;;;;;69.07;40.88;;;;;;;7.99;64.19;99540.41;4986577;28;119739;-76
2022/11/23 02:19:41;;;;;;;72.25;41.78;;;;;;;7.99;63.65;99535.72;4942573;28;119438;-76
2022/11/23 02:22:45;;;;;;;71.15;40.92;;;;;;;8.01;63.97;99538.75;4966752;28;119838;-76
2022/11/23 02:25:32;;;;;;;74.45;42.53;;;;;;;8.08;64.33;99542.38;4973196;28;119425;-76
2022/11/23 02:27:59;;;;;;;72.10;42.35;;;;;;;8.11;63.81;99539.47;4982663;28;120713;-77
2022/11/23 02:30:28;;;;;;;70.95;40.58;;;;;;;8.10;64.23;99535.25;4969683;28;119937;-76
2022/11/23 02:32:55;;;;;;;74.00;41.42;;;;;;;8.16;63.77;99540.81;4969724;28;119888;-76
2022/11/23 02:35:21;;;;;;;69.93;41.07;;;;;;;8.18;64.07;99550.06;4985916;28;120015;-76
2022/11/23 02:37:48;;;;;;;71.93;42.28;;;;;;;8.19;63.79;99537.16;4969177;28;119499;-76
2022/11/23 02:40:29;;;;;;;73.15;42.95;;;;;;;8.18;63.82;99532.94;4952376;28;120016;-76
2022/11/23 02:42:57;;;;;;;71.38;41.45;;;;;;;8.16;63.67;99536.13;4935029;28;120720;-76
2022/11/23 02:45:25;;;;;;;72.45;41.05;;;;;;;8.21;63.60;99540.94;4968160;28;119692;-76
2022/11/23 02:47:51;;;;;;;70.90;40.95;;;;;;;8.21;63.76;99543.69;4954624;28;119450;-76
2022/11/23 02:50:17;;;;;;;72.60;41.83;;;;;;;8.21;63.92;99542.91;4985680;28;119256;-76
2022/11/23 02:52:42;;;;;;;71.93;41.33;;;;;;;8.22;64.37;99538.97;4985397;28;119418;-76
2022/11/23 02:55:09;;;;;;;69.07;40.55;;;;;;;8.27;63.87;99546.53;4965488;28;120126;-76
2022/11/23 02:57:35;;;;;;;72.20;42.20;;;;;;;8.22;63.83;99539.72;4967531;28;119693;-76
2022/11/23 03:00:02;;;;;;;70.47;41.40;;;;;;;8.21;63.68;99537.47;4985171;28;119306;-76
2022/11/23 03:02:28;;;;;;;71.95;41.88;;;;;;;8.21;64.23;99537.47;4966518;28;119513;-77
2022/11/23 03:04:57;;;;;;;72.03;41.35;;;;;;;8.22;64.31;99545.19;4950047;28;119874;-76
2022/11/23 03:07:23;;;;;;;72.72;42.40;;;;;;;8.22;63.73;99537.00;4967638;28;119726;-76
2022/11/23 03:09:49;;;;;;;71.30;41.53;;;;;;;8.23;64.27;99543.22;4955087;28;119827;-76
2022/11/23 03:12:24;;;;;;;75.80;43.08;;;;;;;8.24;64.40;99536.53;4952800;28;120540;-77
2022/11/23 03:14:50;;;;;;;70.60;41.80;;;;;;;8.26;64.10;99534.09;4966478;28;120132;-77
2022/11/23 03:17:17;;;;;;;71.90;41.17;;;;;;;8.23;64.64;99522.13;4985173;28;119697;-76
2022/11/23 03:19:44;;;;;;;70.97;41.63;;;;;;;8.29;64.22;99528.50;4968213;28;119719;-76
2022/11/23 03:22:11;;;;;;;69.43;41.03;;;;;;;8.28;63.62;99526.97;4967718;28;119881;-77
2022/11/23 03:24:37;;;;;;;70.68;41.70;;;;;;;8.28;64.09;99531.66;4966838;28;119640;-76
2022/11/23 03:27:04;;;;;;;71.10;40.87;;;;;;;8.26;64.01;99528.63;4966845;28;119541;-77
2022/11/23 03:29:30;;;;;;;71.82;41.60;;;;;;;8.28;64.46;99526.19;4950223;28;121896;-77
2022/11/23 03:31:58;;;;;;;68.78;41.67;;;;;;;8.33;64.54;99522.84;4955376;28;119262;-76
2022/11/23 03:34:24;;;;;;;72.23;41.37;;;;;;;8.31;64.34;99519.84;4951549;28;121192;-76
2022/11/23 03:36:50;;;;;;;70.47;41.15;;;;;;;8.30;63.92;99512.84;4966885;28;120010;-77
2022/11/23 03:39:16;;;;;;;68.03;40.15;;;;;;;8.34;63.70;99523.63;4967483;28;119796;-76
2022/11/23 03:42:00;;;;;;;69.57;41.40;;;;;;;8.26;63.52;99521.19;4984694;28;119480;-76
2022/11/23 03:44:31;;;;;;;74.47;42.08;;;;;;;8.20;63.42;99525.03;4963398;28;119797;-76
2022/11/23 03:46:58;;;;;;;72.25;42.05;;;;;;;8.10;64.08;99518.84;4961574;28;119564;-76
2022/11/23 03:49:25;;;;;;;75.05;42.33;;;;;;;8.13;63.34;99534.31;4946810;28;120747;-77
2022/11/23 03:51:51;;;;;;;74.43;42.65;;;;;;;8.07;63.42;99535.41;4947272;28;119803;-76
2022/11/23 03:54:17;;;;;;;75.75;42.20;;;;;;;8.00;63.36;99539.19;4983159;28;119886;-76
2022/11/23 03:56:43;;;;;;;75.03;42.67;;;;;;;7.99;63.69;99541.16;4963073;28;119922;-76
2022/11/23 03:59:10;;;;;;;76.38;43.10;;;;;;;7.94;63.87;99530.88;4962928;28;119708;-76
2022/11/23 04:01:36;;;;;;;75.63;43.90;;;;;;;7.95;64.50;99537.84;4966292;28;120097;-76
2022/11/23 04:04:06;;;;;;;77.15;43.03;;;;;;;7.88;63.83;99535.44;4966729;28;120010;-76
2022/11/23 04:06:52;;;;;;;76.07;43.40;;;;;;;7.89;64.61;99539.69;4966641;28;119499;-77
2022/11/23 04:09:25;;;;;;;74.50;43.00;;;;;;;7.90;64.63;99540.44;4966736;28;120207;-76
2022/11/23 04:12:03;;;;;;;76.18;42.70;;;;;;;7.94;64.86;99541.78;4968973;28;119773;-75
2022/11/23 04:14:29;;;;;;;74.50;42.72;;;;;;;7.99;64.97;99543.16;4969987;28;119341;-76
2022/11/23 04:16:55;;;;;;;72.57;42.55;;;;;;;8.02;65.07;99534.78;4966579;28;120262;-76
2022/11/23 04:19:21;;;;;;;70.65;41.50;;;;;;;8.07;64.61;99529.94;4970242;28;119691;-76
2022/11/23 04:21:47;;;;;;;70.83;42.67;;;;;;;8.12;64.54;99537.50;4970071;28;119781;-76
2022/11/23 04:24:13;;;;;;;68.70;41.80;;;;;;;8.14;65.08;99544.03;4970480;28;119903;-76
2022/11/23 04:26:41;;;;;;;68.25;40.70;;;;;;;8.19;64.11;99539.91;4970428;28;119474;-77
2022/11/23 04:29:08;;;;;;;71.28;41.75;;;;;;;8.21;64.22;99540.19;4953061;28;120749;-76
2022/11/23 04:31:36;;;;;;;69.10;41.75;;;;;;;8.22;64.62;99544.44;4968869;28;119410;-76
2022/11/23 04:34:12;;;;;;;70.87;41.50;;;;;;;8.24;64.53;99534.56;4955512;28;119720;-75
2022/11/23 04:36:38;;;;;;;69.70;40.78;;;;;;;8.27;64.34;99541.81;4974458;28;119576;-77
2022/11/23 04:39:05;;;;;;;67.78;41.45;;;;;;;8.28;64.64;99531.66;4971053;28;119376;-76
2022/11/23 04:41:45;;;;;;;65.68;40.88;;;;;;;8.32;64.91;99526.81;4969288;28;120289;-76
2022/11/23 04:44:11;;;;;;;69.13;40.97;;;;;;;8.27;64.42;99511.03;4953128;28;119408;-76
2022/11/23 04:46:38;;;;;;;66.90;40.90;;;;;;;8.38;64.47;99521.50;4969692;28;119538;-76
2022/11/23 04:49:08;;;;;;;64.65;40.75;;;;;;;8.42;65.04;99524.81;4969339;28;120184;-77
2022/11/23 04:51:34;;;;;;;62.28;39.22;;;;;;;8.45;64.31;99524.63;4953547;28;119651;-76
2022/11/23 04:54:00;;;;;;;65.35;40.53;;;;;;;8.48;64.13;99517.47;4970419;28;120012;-76
2022/11/23 04:56:29;;;;;;;66.05;40.33;;;;;;;8.47;64.26;99518.69;4970754;28;120254;-76
2022/11/23 04:58:55;;;;;;;66.80;40.33;;;;;;;8.49;64.70;99521.72;4973840;28;120111;-75
2022/11/23 05:01:21;;;;;;;64.63;40.20;;;;;;;8.47;64.80;99513.22;4969051;28;119895;-75
2022/11/23 05:04:27;;;;;;;63.97;39.40;;;;;;;8.51;64.40;99517.31;4979352;28;119883;-75
2022/11/23 05:06:53;;;;;;;64.93;39.67;;;;;;;8.52;64.47;99516.13;4971758;28;119573;-75
2022/11/23 05:09:19;;;;;;;65.55;39.88;;;;;;;8.55;64.14;99520.66;4969016;28;119890;-75
2022/11/23 05:11:55;;;;;;;63.97;39.30;;;;;;;8.58;64.40;99521.69;4953488;28;120346;-75
2022/11/23 05:14:21;;;;;;;63.75;40.03;;;;;;;8.57;64.60;99517.44;4955225;28;119531;-77
2022/11/23 05:16:47;;;;;;;64.73;39.80;;;;;;;8.61;64.74;99524.25;4970858;28;120266;-78
2022/11/23 05:19:14;;;;;;;61.35;38.72;;;;;;;8.66;64.90;99527.56;4954668;28;119740;-77
2022/11/23 05:21:40;;;;;;;61.65;38.85;;;;;;;8.65;64.23;99523.31;4958883;28;120114;-77
2022/11/23 05:24:06;;;;;;;60.58;38.63;;;;;;;8.57;64.30;99504.53;4971442;28;119628;-78
2022/11/23 05:26:32;;;;;;;61.00;39.30;;;;;;;8.66;64.25;99516.63;4972245;28;119514;-78
2022/11/23 05:29:00;;;;;;;59.58;37.97;;;;;;;8.69;64.64;99521.91;4986935;28;119585;-77
2022/11/23 05:31:35;;;;;;;60.40;38.30;;;;;;;8.75;64.70;99528.25;4956167;28;119776;-76
2022/11/23 05:34:03;;;;;;;60.75;38.22;;;;;;;8.77;64.75;99516.88;4988266;28;119691;-77
2022/11/23 05:36:37;;;;;;;57.60;37.90;;;;;;;8.82;64.57;99529.91;4969843;28;119731;-77
2022/11/23 05:39:03;;;;;;;62.53;38.70;;;;;;;8.82;64.45;99518.97;4974222;28;119535;-76
2022/11/23 05:41:31;;;;;;;63.33;39.47;;;;;;;8.86;64.12;99520.28;4953045;28;119924;-77
2022/11/23 05:44:00;;;;;;;60.67;37.95;;;;;;;8.88;64.11;99517.09;4977371;28;119590;-77
2022/11/23 05:46:28;;;;;;;59.20;38.17;;;;;;;8.88;64.08;99511.63;4970240;28;119434;-77
2022/11/23 05:48:54;;;;;;;61.22;38.08;;;;;;;8.89;64.52;99518.59;4968387;28;121115;-77
2022/11/23 05:51:21;;;;;;;58.90;37.70;;;;;;;8.95;64.29;99522.19;4969680;28;119775;-76
2022/11/23 05:53:48;;;;;;;63.60;40.05;;;;;;;8.96;64.43;99526.44;4967616;28;119634;-77
2022/11/23 05:56:36;;;;;;;62.97;38.93;;;;;;;8.96;64.58;99515.50;4968909;28;120143;-77
2022/11/23 05:59:22;;;;;;;60.60;39.55;;;;;;;8.93;64.38;99509.00;4983168;28;119874;-77
2022/11/23 06:01:53;;;;;;;61.57;38.63;;;;;;;8.94;64.26;99517.97;4953411;28;119729;-77
2022/11/23 06:04:25;;;;;;;63.95;38.72;;;;;;;8.94;64.40;99515.22;4968545;28;119694;-77
2022/11/23 06:06:53;;;;;;;63.63;39.03;;;;;;;9.00;63.90;99518.84;4965346;28;119838;-77
2022/11/23 06:09:19;;;;;;;57.95;37.88;;;;;;;9.01;63.96;99517.63;4969654;28;119691;-77
2022/11/23 06:11:48;;;;;;;61.55;38.58;;;;;;;9.03;64.51;99517.91;4969774;28;119872;-77
2022/11/23 06:14:17;;;;;;;62.67;38.73;;;;;;;8.97;64.38;99508.81;4968820;28;119630;-76
2022/11/23 06:16:45;;;;;;;61.97;39.07;;;;;;;9.04;64.63;99515.94;4968697;28;119543;-76
2022/11/23 06:19:31;;;;;;;62.07;38.73;;;;;;;9.04;64.78;99515.94;4988129;28;119802;-77
2022/11/23 06:21:58;;;;;;;62.75;38.60;;;;;;;9.05;64.37;99517.44;4987134;28;119428;-76
2022/11/23 06:24:27;;;;;;;62.63;38.78;;;;;;;9.03;65.05;99508.94;4968054;28;120407;-77
2022/11/23 06:27:16;;;;;;;59.97;38.07;;;;;;;8.98;64.74;99509.56;4990829;28;119504;-77
2022/11/23 06:29:42;;;;;;;61.25;38.17;;;;;;;9.01;64.87;99514.88;4956508;28;120316;-77
2022/11/23 06:32:08;;;;;;;59.13;37.55;;;;;;;9.00;65.28;99513.38;4952394;28;119735;-77
2022/11/23 06:34:34;;;;;;;60.08;38.03;;;;;;;8.96;65.61;99501.06;4968406;28;119798;-77
2022/11/23 06:37:00;;;;;;;56.88;37.33;;;;;;;9.07;65.14;99518.47;4968105;28;119885;-77
2022/11/23 06:39:28;;;;;;;58.53;36.83;;;;;;;9.04;64.80;99524.88;4969462;28;119556;-77
2022/11/23 06:41:55;;;;;;;57.67;36.83;;;;;;;9.07;65.24;99526.69;4966301;28;119861;-76
2022/11/23 06:44:21;;;;;;;60.35;37.60;;;;;;;9.07;65.49;99529.41;4968421;28;119762;-76
2022/11/23 06:46:46;;;;;;;56.33;36.53;;;;;;;9.09;65.23;99532.44;4968148;28;119778;-78
2022/11/23 06:49:18;;;;;;;55.83;36.72;;;;;;;9.09;65.33;99534.41;4990473;28;119706;-77
2022/11/23 06:51:48;;;;;;;57.45;36.67;;;;;;;9.09;65.52;99532.44;4967966;28;119503;-76
2022/11/23 06:54:14;;;;;;;57.23;36.20;;;;;;;9.09;65.62;99535.19;4968053;28;119717;-76
2022/11/23 06:56:40;;;;;;;54.17;35.53;;;;;;;9.10;65.34;99541.41;4965666;28;119680;-77
2022/11/23 06:59:07;;;;;;;57.03;36.33;;;;;;;9.15;65.22;99551.69;4967808;28;119490;-77
2022/11/23 07:01:33;;;;;;;55.30;36.13;;;;;;;9.15;65.35;99546.97;4967817;28;119639;-77
2022/11/23 07:04:16;;;;;;;59.03;37.92;;;;;;;9.14;64.95;99544.72;4934692;28;119835;-76
2022/11/23 07:06:48;;;;;;;58.30;37.90;;;;;;;9.11;65.46;99548.38;4948707;28;119660;-76
2022/11/23 07:09:25;;;;;;;58.33;37.25;;;;;;;9.13;65.15;99543.94;4967409;28;119813;-76
2022/11/23 07:12:13;;;;;;;58.78;36.47;;;;;;;9.13;65.51;99535.00;4960456;28;119443;-76
2022/11/23 07:14:40;;;;;;;56.13;36.08;;;;;;;9.12;65.09;99538.94;4968078;28;120014;-75
2022/11/23 07:17:05;;;;;;;58.90;37.40;;;;;;;9.15;65.46;99536.03;4984620;28;120211;-76
2022/11/23 07:19:33;;;;;;;55.58;36.45;;;;;;;9.12;65.45;99531.50;4986018;28;119645;-76
2022/11/23 07:21:59;;;;;;;60.33;36.60;;;;;;;9.13;65.58;99533.00;4967798;28;119539;-77
2022/11/23 07:24:25;;;;;;;56.17;36.03;;;;;;;9.16;65.45;99534.81;4966390;28;120121;-77
2022/11/23 07:26:51;;;;;;;54.47;35.88;;;;;;;9.21;65.40;99538.88;4966003;28;119744;-77
2022/11/23 07:29:19;;;;;;;58.10;37.28;;;;;;;9.25;65.16;99541.44;4966716;28;119799;-75
2022/11/23 07:31:45;;;;;;;56.25;36.22;;;;;;;9.18;65.30;99526.88;4967268;28;119691;-78
2022/11/23 07:34:13;;;;;;;57.50;36.60;;;;;;;9.25;65.49;99536.72;4973434;28;119387;-78
2022/11/23 07:36:40;;;;;;;55.40;36.17;;;;;;;9.23;65.57;99539.94;4969356;28;119531;-76
2022/11/23 07:39:06;;;;;;;56.92;35.83;;;;;;;9.25;65.23;99533.25;4970061;28;119558;-78
2022/11/23 07:41:32;;;;;;;55.13;35.88;;;;;;;9.28;65.02;99543.25;4968039;28;119754;-76
2022/11/23 07:44:05;;;;;;;55.22;35.95;;;;;;;9.32;65.23;99543.81;4966875;28;119780;-76
2022/11/23 07:46:31;;;;;;;55.00;35.60;;;;;;;9.34;65.32;99541.38;4985576;28;119895;-79
2022/11/23 07:49:01;;;;;;;55.73;35.50;;;;;;;9.33;65.42;99534.38;4965048;28;119511;-79
2022/11/23 07:51:28;;;;;;;52.42;34.20;;;;;;;9.37;65.61;99543.16;4968744;28;119934;-78
2022/11/23 07:53:59;;;;;;;54.67;35.43;;;;;;;9.38;65.20;99539.97;4968610;28;120116;-79
2022/11/23 07:56:25;;;;;;;52.70;34.72;;;;;;;9.43;65.15;99544.00;4990896;28;119627;-78
2022/11/23 07:58:54;;;;;;;48.67;33.47;;;;;;;9.43;65.40;99544.00;4971433;28;119345;-78
2022/11/23 08:01:19;;;;;;;52.67;33.90;;;;;;;9.42;65.12;99537.03;4986669;28;119715;-79
2022/11/23 08:03:46;;;;;;;51.50;32.47;;;;;;;9.47;65.18;99545.38;4990495;28;119792;-78
2022/11/23 08:06:13;;;;;;;54.17;34.45;;;;;;;9.49;65.30;99545.66;4987106;28;119314;-78
2022/11/23 08:08:39;;;;;;;52.47;34.33;;;;;;;9.51;65.23;99539.72;4985558;28;119440;-76
2022/11/23 08:11:06;;;;;;;50.08;33.80;;;;;;;9.54;65.78;99545.00;4970407;28;120641;-76
2022/11/23 08:13:36;;;;;;;52.83;33.70;;;;;;;9.56;65.50;99543.75;4982688;28;119667;-76
2022/11/23 08:16:02;;;;;;;52.45;33.55;;;;;;;9.59;65.16;99546.31;4951661;28;120054;-76
2022/11/23 08:18:28;;;;;;;50.17;33.40;;;;;;;9.61;64.98;99543.84;4980848;28;119455;-76
2022/11/23 08:20:59;;;;;;;52.70;33.65;;;;;;;9.63;64.94;99548.84;4988430;28;119698;-76
2022/11/23 08:23:26;;;;;;;52.87;34.33;;;;;;;9.61;65.41;99548.56;4985599;28;119800;-76
2022/11/23 08:25:52;;;;;;;52.47;34.33;;;;;;;9.66;65.27;99547.91;4978175;28;119761;-76
2022/11/23 08:28:18;;;;;;;50.27;32.77;;;;;;;9.68;65.35;99548.19;4964317;28;119196;-76
2022/11/23 08:30:44;;;;;;;51.57;34.07;;;;;;;9.68;64.81;99554.44;4967406;28;119819;-76
2022/11/23 08:33:11;;;;;;;50.65;33.67;;;;;;;9.69;65.27;99555.94;4989299;28;119674;-79
2022/11/23 08:35:39;;;;;;;52.78;33.88;;;;;;;9.70;65.16;99560.22;4983946;28;119950;-78
2022/11/23 08:38:07;;;;;;;50.28;33.05;;;;;;;9.77;65.21;99559.84;4985982;28;119415;-78
2022/11/23 08:40:34;;;;;;;48.15;32.30;;;;;;;9.76;65.31;99555.59;4970468;28;119568;-79
2022/11/23 08:43:00;;;;;;;49.17;32.70;;;;;;;9.65;65.26;99547.16;4991813;28;119717;-78
2022/11/23 08:45:26;;;;;;;50.80;32.33;;;;;;;9.73;65.79;99553.03;4988748;28;119771;-76
2022/11/23 08:48:02;;;;;;;47.28;31.58;;;;;;;9.76;65.39;99558.31;4973363;28;120367;-79
2022/11/23 08:50:29;;;;;;;49.75;31.95;;;;;;;9.82;65.69;99572.09;4952550;28;119615;-79
2022/11/23 08:52:57;;;;;;;49.20;31.58;;;;;;;9.85;65.63;99560.22;4974189;28;119517;-76
2022/11/23 08:55:23;;;;;;;50.78;32.80;;;;;;;9.85;65.35;99563.69;4993542;27;119449;-76
2022/11/23 08:58:08;;;;;;;48.30;31.75;;;;;;;9.89;65.59;99568.97;4950124;28;119638;-76
2022/11/23 09:00:34;;;;;;;48.10;31.53;;;;;;;9.94;65.54;99570.31;4967127;28;120292;-76
2022/11/23 09:03:00;;;;;;;45.70;30.20;;;;;;;9.98;65.17;99570.91;4969056;28;119719;-75
2022/11/23 09:05:27;;;;;;;45.88;30.73;;;;;;;9.98;65.28;99571.66;4969305;28;119656;-76
2022/11/23 09:07:54;;;;;;;45.13;29.83;;;;;;;10.01;65.27;99569.94;4969038;28;119881;-76
2022/11/23 09:10:20;;;;;;;43.63;30.07;;;;;;;10.05;65.05;99570.50;4988621;28;120037;-77
2022/11/23 09:12:46;;;;;;;42.90;29.58;;;;;;;10.00;65.27;99563.72;4959394;28;120032;-78
2022/11/23 09:15:13;;;;;;;41.88;29.52;;;;;;;10.07;65.37;99562.56;4968899;28;119409;-78
2022/11/23 09:17:46;;;;;;;40.60;28.77;;;;;;;10.07;64.95;99568.03;4986752;28;120245;-79
2022/11/23 09:20:12;;;;;;;39.63;28.48;;;;;;;10.08;65.30;99572.28;4974506;28;119765;-78
2022/11/23 09:22:38;;;;;;;43.30;28.58;;;;;;;10.05;65.40;99565.03;4972804;28;120192;-78
2022/11/23 09:25:07;;;;;;;38.00;27.67;;;;;;;10.14;65.69;99570.41;4971384;28;119745;-78
2022/11/23 09:27:33;;;;;;;38.85;27.15;;;;;;;10.11;65.19;99569.34;4987843;28;119709;-77
2022/11/23 09:30:16;;;;;;;39.23;27.83;;;;;;;10.25;65.60;99581.56;4987404;28;119730;-78
2022/11/23 09:32:42;;;;;;;40.22;27.90;;;;;;;10.29;65.54;99582.13;4969597;28;119413;-78
2022/11/23 09:35:08;;;;;;;39.63;28.17;;;;;;;10.31;65.24;99576.19;4988543;28;119901;-78
2022/11/23 09:37:58;;;;;;;40.73;27.87;;;;;;;10.21;65.15;99567.31;4973125;28;119812;-77
2022/11/23 09:40:39;;;;;;;38.08;27.23;;;;;;;10.31;65.16;99576.94;4957525;28;120239;-78
2022/11/23 09:43:30;;;;;;;40.58;27.85;;;;;;;10.35;65.21;99580.22;4987979;28;119416;-78
2022/11/23 09:46:05;;;;;;;39.78;26.80;;;;;;;10.33;65.36;99588.16;4990416;28;119701;-78
2022/11/23 09:48:30;;;;;;;38.00;27.00;;;;;;;10.34;65.27;99584.19;4988840;28;119976;-78
2022/11/23 09:51:15;;;;;;;38.80;27.17;;;;;;;10.34;65.10;99573.22;4988907;28;120091;-78
2022/11/23 09:53:51;;;;;;;40.28;27.58;;;;;;;10.39;64.98;99582.78;4988056;28;119899;-78
2022/11/23 09:56:32;;;;;;;38.83;26.80;;;;;;;10.42;65.44;99588.09;4969637;28;121216;-78
2022/11/23 09:59:02;;;;;;;40.55;27.42;;;;;;;10.45;65.19;99587.13;4985637;28;119899;-78
2022/11/23 10:01:29;;;;;;;39.72;27.42;;;;;;;10.47;65.26;99583.16;4970649;28;119464;-78
2022/11/23 10:03:56;;;;;;;39.43;27.33;;;;;;;10.51;64.69;99589.19;4976730;28;119497;-78
2022/11/23 10:06:27;;;;;;;41.77;27.97;;;;;;;10.51;64.79;99587.19;4986247;28;120184;-78
2022/11/23 10:09:00;;;;;;;39.83;26.77;;;;;;;10.56;65.00;99588.50;4974519;28;119973;-78
2022/11/23 10:11:40;;;;;;;38.00;27.17;;;;;;;10.58;65.09;99586.81;4987416;28;119311;-76
2022/11/23 10:14:12;;;;;;;40.70;27.27;;;;;;;10.60;64.95;99592.56;4967291;28;119578;-77
2022/11/23 10:17:10;;;;;;;37.92;27.10;;;;;;;10.63;65.17;99596.34;4984872;28;119654;-76
2022/11/23 10:19:55;;;;;;;36.15;26.08;;;;;;;10.62;65.06;99589.34;4970244;28;119757;-76
2022/11/23 10:22:24;;;;;;;38.25;25.65;;;;;;;10.68;65.38;99590.19;4967506;28;119754;-76
2022/11/23 10:25:00;;;;;;;35.90;25.55;;;;;;;10.69;65.00;99591.72;4985309;28;119578;-76
2022/11/23 10:27:29;;;;;;;34.83;25.87;;;;;;;10.72;65.12;99597.00;4982956;28;119863;-77
2022/11/23 10:29:56;;;;;;;37.63;25.10;;;;;;;10.73;65.06;99593.03;4983008;28;119268;-77
2022/11/23 10:32:32;;;;;;;36.37;24.90;;;;;;;10.74;64.87;99591.78;4965150;28;120089;-77
2022/11/23 10:35:01;;;;;;;34.67;23.92;;;;;;;10.76;64.77;99594.81;4968264;28;120262;-76
2022/11/23 10:37:27;;;;;;;33.28;24.40;;;;;;;10.80;64.78;99597.34;4966798;28;119889;-77
2022/11/23 10:39:53;;;;;;;32.58;24.17;;;;;;;10.83;64.82;99603.84;4967513;28;120889;-75
2022/11/23 10:42:28;;;;;;;34.40;24.02;;;;;;;10.87;65.22;99599.66;4968488;28;119948;-76
2022/11/23 10:44:55;;;;;;;31.63;23.35;;;;;;;10.89;64.72;99599.97;4968234;28;120074;-77
2022/11/23 10:47:37;;;;;;;68.72;28.65;;;;;;;10.90;64.77;99604.22;4986336;28;119533;-76
2022/11/23 10:50:19;;;;;;;54.13;25.65;;;;;;;10.91;64.85;99605.75;4986111;27;119828;-77
2022/11/23 10:52:51;;;;;;;41.28;23.77;;;;;;;10.94;64.57;99604.78;4955056;28;120759;-77
2022/11/23 10:55:21;;;;;;;46.30;25.70;;;;;;;11.00;65.14;99604.84;4987295;28;119588;-76
2022/11/23 10:57:52;;;;;;;36.30;22.65;;;;;;;11.02;64.89;99605.13;4949546;28;120037;-77
2022/11/23 11:00:20;;;;;;;88.38;29.17;;;;;;;11.07;64.67;99607.94;4949710;28;119629;-76
2022/11/23 11:02:52;;;;;;;35.13;22.13;;;;;;;11.12;64.71;99612.00;4967737;28;120056;-76
2022/11/23 11:05:35;;;;;;;32.40;22.42;;;;;;;11.11;64.65;99606.97;4984884;28;119252;-77
2022/11/23 11:08:12;;;;;;;46.22;24.55;;;;;;;11.11;64.73;99601.47;4984624;28;120152;-76
2022/11/23 11:10:55;;;;;;;65.80;27.67;;;;;;;11.11;65.08;99596.75;4981490;28;119472;-77
2022/11/23 11:13:23;;;;;;;63.88;26.70;;;;;;;11.20;65.02;99604.88;4985029;28;119312;-77
2022/11/23 11:16:03;;;;;;;74.32;28.55;;;;;;;11.22;65.05;99598.88;4969180;28;119933;-76
2022/11/23 11:18:35;;;;;;;33.92;21.42;;;;;;;11.02;65.24;99583.91;4968200;28;119708;-77
2022/11/23 11:21:06;;;;;;;34.40;21.77;;;;;;;11.10;65.37;99603.47;4967615;28;119877;-77
2022/11/23 11:23:58;;;;;;;32.72;21.35;;;;;;;11.03;65.47;99606.63;4968739;28;119457;-76
2022/11/23 11:26:27;;;;;;;32.55;21.50;;;;;;;10.97;65.36;99605.81;4986665;28;119622;-76
2022/11/23 11:29:31;;;;;;;36.40;21.33;;;;;;;10.91;65.94;99599.50;4970456;28;119483;-76